Time;durP1;ratioP1;P1;durP2;ratioP2;P2;SDS_P1;SDS_P2;PMS_P1;PMS_P2;Temp;Humidity;BMP_temperature;BMP_pressure;BME280_temperature;BME280_humidity;BME280_pressure;Samples;Min_cycle;Max_cycle;Signal;HPM_P1;HPM_P2
2021/03/19 00:01:11;;;;;;;16.93;11.07;;;;;;;-3.06;82.86;92599.33;1782668;80;21198;-74
2021/03/19 00:03:40;;;;;;;20.20;10.87;;;;;;;-3.07;82.69;92597.22;1825534;77;21124;-74
2021/03/19 00:06:08;;;;;;;27.13;14.63;;;;;;;-3.10;82.76;92594.45;1770080;80;21108;-74
2021/03/19 00:08:36;;;;;;;42.40;16.60;;;;;;;-3.12;82.87;92594.78;1748759;81;21199;-74
2021/03/19 00:11:04;;;;;;;37.33;14.90;;;;;;;-3.13;82.71;92589.22;1785438;80;21605;-73
2021/03/19 00:13:32;;;;;;;32.77;13.83;;;;;;;-3.14;82.68;92593.55;1766580;81;21524;-74
2021/03/19 00:16:00;;;;;;;33.67;13.80;;;;;;;-3.15;82.77;92590.67;1764162;79;21171;-74
2021/03/19 00:18:29;;;;;;;16.77;10.53;;;;;;;-3.18;82.82;92588.11;1800204;78;21478;-74
2021/03/19 00:20:57;;;;;;;24.77;11.63;;;;;;;-3.20;82.82;92582.33;1790246;80;21145;-74
2021/03/19 00:23:25;;;;;;;22.43;11.40;;;;;;;-3.25;83.01;92584.66;1801917;79;21088;-74
2021/03/19 00:25:52;;;;;;;20.77;10.83;;;;;;;-3.25;83.08;92578.01;1751868;80;21545;-74
2021/03/19 00:28:20;;;;;;;19.80;10.83;;;;;;;-3.26;83.12;92581.78;1808780;78;21155;-74
2021/03/19 00:30:48;;;;;;;17.27;10.50;;;;;;;-3.27;83.14;92575.45;1799568;79;21074;-74
2021/03/19 00:33:16;;;;;;;17.37;10.83;;;;;;;-3.30;83.17;92574.80;1781474;79;21047;-74
2021/03/19 00:35:45;;;;;;;18.10;11.07;;;;;;;-3.35;83.27;92571.77;1781500;80;21124;-74
2021/03/19 00:38:13;;;;;;;16.13;10.33;;;;;;;-3.36;83.47;92576.87;1781151;80;21629;-74
2021/03/19 00:40:41;;;;;;;20.07;11.23;;;;;;;-3.36;83.60;92573.44;1836023;78;21124;-73
2021/03/19 00:43:10;;;;;;;22.37;11.87;;;;;;;-3.34;83.52;92571.25;1809065;78;21074;-74
2021/03/19 00:45:38;;;;;;;21.70;12.30;;;;;;;-3.35;83.41;92569.67;1791499;79;21099;-74
2021/03/19 00:48:06;;;;;;;19.87;12.20;;;;;;;-3.36;83.33;92566.23;1811775;79;21112;-74
2021/03/19 00:50:38;;;;;;;37.07;19.23;;;;;;;-3.36;83.25;92566.80;1799659;79;21160;-74
2021/03/19 00:53:06;;;;;;;19.50;10.70;;;;;;;-3.39;83.06;92568.22;1801567;79;21072;-74
2021/03/19 00:55:34;;;;;;;15.83;10.53;;;;;;;-3.40;83.09;92567.23;1811059;79;21557;-74
2021/03/19 00:58:02;;;;;;;16.93;10.30;;;;;;;-3.40;83.20;92560.59;1812988;79;21115;-74
2021/03/19 01:00:33;;;;;;;85.00;43.40;;;;;;;-3.39;83.18;92562.13;1815993;78;21154;-75
2021/03/19 01:03:03;;;;;;;19.40;12.87;;;;;;;-3.42;82.82;92563.03;1818433;78;21194;-74
2021/03/19 01:05:35;;;;;;;17.70;10.17;;;;;;;-3.43;82.13;92559.35;1814760;79;21080;-74
2021/03/19 01:08:27;;;;;;;18.80;9.70;;;;;;;-3.44;82.23;92561.23;1804135;79;21132;-74
2021/03/19 01:10:56;;;;;;;12.83;8.40;;;;;;;-3.44;82.19;92555.14;1773664;81;21144;-75
2021/03/19 01:13:25;;;;;;;10.03;7.57;;;;;;;-3.45;82.06;92558.36;1818257;79;21151;-74
2021/03/19 01:15:54;;;;;;;12.73;9.33;;;;;;;-3.45;81.49;92550.39;1809787;78;21421;-74
2021/03/19 01:18:24;;;;;;;14.43;10.43;;;;;;;-3.46;81.16;92547.52;1789605;79;21083;-74
2021/03/19 01:20:55;;;;;;;15.10;10.13;;;;;;;-3.47;81.04;92549.92;1805437;78;21064;-74
2021/03/19 01:23:23;;;;;;;15.20;9.40;;;;;;;-3.48;81.18;92552.92;1800809;79;21092;-74
2021/03/19 01:25:51;;;;;;;15.80;9.63;;;;;;;-3.51;81.65;92550.36;1750693;82;21146;-74
2021/03/19 01:28:19;;;;;;;13.37;8.87;;;;;;;-3.52;81.71;92543.50;1786677;80;21199;-75
2021/03/19 01:30:48;;;;;;;14.73;8.93;;;;;;;-3.52;81.35;92544.83;1807476;78;21165;-75
2021/03/19 01:33:16;;;;;;;12.10;8.53;;;;;;;-3.53;81.03;92545.94;1803885;79;21123;-74
2021/03/19 01:35:44;;;;;;;12.13;8.00;;;;;;;-3.51;81.00;92544.27;1813793;78;21063;-74
2021/03/19 01:38:13;;;;;;;11.03;7.70;;;;;;;-3.51;80.95;92543.72;1781787;79;21497;-75
2021/03/19 01:40:44;;;;;;;10.87;7.43;;;;;;;-3.50;80.73;92541.83;1800895;79;21810;-75
2021/03/19 01:43:20;;;;;;;12.73;8.83;;;;;;;-3.50;80.39;92543.96;1809088;79;21181;-75
2021/03/19 01:46:43;;;;;;;10.53;7.17;;;;;;;-3.52;80.01;92544.83;1800096;79;21226;-74
2021/03/19 01:50:08;;;;;;;9.23;6.83;;;;;;;-3.54;80.21;92540.38;1791932;80;21188;-73
2021/03/19 01:53:17;;;;;;;11.50;7.13;;;;;;;-3.55;80.45;92541.49;1791771;78;21111;-73
2021/03/19 01:56:17;;;;;;;10.67;7.80;;;;;;;-3.57;80.41;92535.75;1806369;79;21368;-73
2021/03/19 01:59:19;;;;;;;11.33;7.63;;;;;;;-3.56;80.17;92531.20;1768789;81;21115;-74
2021/03/19 02:02:20;;;;;;;15.07;8.33;;;;;;;-3.55;80.44;92535.41;1771223;80;21468;-73
2021/03/19 02:05:21;;;;;;;10.57;6.97;;;;;;;-3.53;80.65;92536.64;1774375;80;21072;-72
2021/03/19 02:08:22;;;;;;;7.23;6.27;;;;;;;-3.54;79.90;92532.97;1769687;81;21645;-73
2021/03/19 02:11:22;;;;;;;9.30;6.83;;;;;;;-3.57;78.97;92534.94;1812309;78;21115;-72
2021/03/19 02:14:24;;;;;;;10.03;6.10;;;;;;;-3.56;78.86;92544.48;1774056;80;21701;-73
2021/03/19 02:17:24;;;;;;;9.53;6.37;;;;;;;-3.56;78.65;92537.29;1774775;80;21167;-73
2021/03/19 02:20:26;;;;;;;8.43;6.80;;;;;;;-3.56;78.30;92538.63;1770436;80;21051;-74
2021/03/19 02:23:28;;;;;;;9.47;6.93;;;;;;;-3.56;78.13;92545.81;1803449;79;21052;-74
2021/03/19 02:26:28;;;;;;;8.80;7.43;;;;;;;-3.60;77.94;92543.04;1808547;79;22259;-74
2021/03/19 02:29:29;;;;;;;7.33;6.30;;;;;;;-3.59;77.62;92543.81;1808034;79;21115;-72
2021/03/19 02:32:19;;;;;;;7.20;5.93;;;;;;;-3.60;77.79;92539.61;1768572;80;21057;-73
2021/03/19 02:34:59;;;;;;;7.93;5.87;;;;;;;-3.61;77.83;92534.05;1812404;79;21051;-73
2021/03/19 02:37:30;;;;;;;8.37;6.07;;;;;;;-3.59;78.43;92533.18;1811636;79;21149;-73
2021/03/19 02:39:58;;;;;;;11.73;6.73;;;;;;;-3.59;78.60;92539.83;1811610;79;21181;-72
2021/03/19 02:42:29;;;;;;;8.70;6.27;;;;;;;-3.60;79.31;92531.08;1808725;79;21432;-73
2021/03/19 02:44:57;;;;;;;8.23;6.13;;;;;;;-3.59;79.63;92535.84;1874517;76;21244;-72
2021/03/19 02:47:25;;;;;;;8.83;6.37;;;;;;;-3.60;79.85;92531.08;1781372;79;21065;-73
2021/03/19 02:49:53;;;;;;;11.37;7.93;;;;;;;-3.60;80.20;92532.97;1825488;78;21509;-72
2021/03/19 02:52:23;;;;;;;13.73;8.40;;;;;;;-3.61;80.48;92534.85;1847740;77;21250;-72
2021/03/19 02:54:52;;;;;;;11.07;8.07;;;;;;;-3.63;80.75;92535.72;1808757;79;21096;-72
2021/03/19 02:57:20;;;;;;;13.47;8.17;;;;;;;-3.63;80.94;92537.59;1845023;77;21095;-72
2021/03/19 02:59:48;;;;;;;10.90;7.63;;;;;;;-3.65;80.84;92537.91;1871689;76;21582;-72
2021/03/19 03:02:16;;;;;;;9.37;6.63;;;;;;;-3.66;80.79;92533.16;1792830;80;21077;-72
2021/03/19 03:04:44;;;;;;;11.37;5.23;;;;;;;-3.64;80.70;92534.17;1770296;80;21177;-72
2021/03/19 03:07:26;;;;;;;9.13;5.97;;;;;;;-3.63;79.90;92535.72;1772720;81;21091;-72
2021/03/19 03:09:54;;;;;;;9.53;6.83;;;;;;;-3.65;78.46;92536.58;1785387;79;21064;-73
2021/03/19 03:12:22;;;;;;;8.23;6.33;;;;;;;-3.66;78.02;92543.01;1800220;78;21568;-74
2021/03/19 03:14:51;;;;;;;9.43;6.37;;;;;;;-3.69;77.51;92541.00;1802872;79;21132;-72
2021/03/19 03:17:19;;;;;;;9.97;6.00;;;;;;;-3.72;77.99;92542.45;1814517;79;21754;-74
2021/03/19 03:19:47;;;;;;;9.40;6.47;;;;;;;-3.72;78.66;92543.01;1839157;77;21166;-73
2021/03/19 03:22:15;;;;;;;9.73;7.17;;;;;;;-3.72;79.23;92547.77;1773213;79;21060;-74
2021/03/19 03:24:43;;;;;;;10.00;7.33;;;;;;;-3.69;79.49;92547.09;1769888;80;21545;-73
2021/03/19 03:27:11;;;;;;;11.63;7.90;;;;;;;-3.68;79.49;92545.23;1801264;79;21249;-72
2021/03/19 03:29:39;;;;;;;9.60;7.57;;;;;;;-3.69;79.51;92551.08;1792449;80;21372;-73
2021/03/19 03:32:07;;;;;;;13.00;8.23;;;;;;;-3.70;79.66;92550.86;1757817;81;21633;-73
2021/03/19 03:34:35;;;;;;;16.03;9.23;;;;;;;-3.71;79.54;92550.64;1775025;80;21472;-74
2021/03/19 03:37:03;;;;;;;13.67;8.77;;;;;;;-3.73;79.63;92548.08;1750647;80;21500;-72
2021/03/19 03:39:31;;;;;;;15.63;10.27;;;;;;;-3.75;79.92;92547.64;1787366;79;21128;-73
2021/03/19 03:42:02;;;;;;;14.97;9.90;;;;;;;-3.75;80.00;92549.73;1781479;80;21320;-73
2021/03/19 03:44:31;;;;;;;13.10;9.10;;;;;;;-3.77;80.41;92548.50;1781792;80;21131;-73
2021/03/19 03:46:59;;;;;;;18.07;11.83;;;;;;;-3.79;80.69;92550.17;1780343;80;21107;-73
2021/03/19 03:49:27;;;;;;;17.90;10.53;;;;;;;-3.78;80.78;92550.39;1776331;79;21170;-73
2021/03/19 03:51:55;;;;;;;15.77;10.57;;;;;;;-3.78;80.87;92546.95;1768322;80;21080;-72
2021/03/19 03:54:23;;;;;;;16.87;10.50;;;;;;;-3.76;81.03;92552.18;1781449;80;21366;-72
2021/03/19 03:56:51;;;;;;;14.77;9.80;;;;;;;-3.72;80.75;92549.65;1781807;80;21143;-72
2021/03/19 03:59:19;;;;;;;15.60;10.83;;;;;;;-3.73;80.83;92559.47;1781859;80;21693;-73
2021/03/19 04:01:49;;;;;;;16.60;10.23;;;;;;;-3.73;80.88;92546.19;1775953;78;21503;-72
2021/03/19 04:04:17;;;;;;;15.23;10.70;;;;;;;-3.72;80.95;92549.65;1765902;81;21179;-72
2021/03/19 04:06:46;;;;;;;17.00;11.80;;;;;;;-3.72;80.86;92550.42;1771256;80;21794;-72
2021/03/19 04:09:13;;;;;;;18.13;11.50;;;;;;;-3.74;80.80;92553.17;1773197;80;21088;-73
2021/03/19 04:11:41;;;;;;;21.27;11.93;;;;;;;-3.77;80.96;92551.16;1811590;79;21115;-72
2021/03/19 04:14:09;;;;;;;15.93;10.97;;;;;;;-3.82;80.91;92554.80;1795503;79;21115;-72
2021/03/19 04:16:37;;;;;;;20.10;11.10;;;;;;;-3.85;81.17;92554.13;1792673;80;21143;-73
2021/03/19 04:19:06;;;;;;;15.60;10.63;;;;;;;-3.84;81.46;92556.22;1792424;78;21302;-73
2021/03/19 04:21:33;;;;;;;15.53;9.97;;;;;;;-3.83;81.69;92556.47;1759907;79;21080;-73
2021/03/19 04:24:01;;;;;;;19.37;10.97;;;;;;;-3.80;81.79;92551.81;1886904;76;21542;-73
2021/03/19 04:26:34;;;;;;;17.07;11.00;;;;;;;-3.78;81.49;92549.06;1814448;78;21160;-73
2021/03/19 04:29:03;;;;;;;20.90;10.30;;;;;;;-3.79;81.33;92550.17;1814075;77;21131;-73
2021/03/19 04:31:30;;;;;;;19.30;11.63;;;;;;;-3.77;81.36;92556.48;1791590;80;21199;-72
2021/03/19 04:33:59;;;;;;;16.03;10.77;;;;;;;-3.76;81.37;92554.84;1809174;79;21550;-72
2021/03/19 04:36:49;;;;;;;16.30;11.60;;;;;;;-3.74;81.31;92549.19;1802900;79;21168;-72
2021/03/19 04:39:26;;;;;;;13.93;10.07;;;;;;;-3.75;81.25;92559.04;1802559;79;21143;-72
2021/03/19 04:41:56;;;;;;;13.83;10.77;;;;;;;-3.76;81.46;92559.34;1770514;80;21043;-72
2021/03/19 04:44:25;;;;;;;17.03;11.00;;;;;;;-3.76;81.29;92565.99;1795232;79;21361;-71
2021/03/19 04:46:53;;;;;;;15.80;10.77;;;;;;;-3.76;81.46;92561.48;1768363;80;21080;-71
2021/03/19 04:49:21;;;;;;;18.20;10.70;;;;;;;-3.76;81.38;92562.80;1749651;82;21574;-72
2021/03/19 04:51:50;;;;;;;20.13;11.30;;;;;;;-3.75;81.56;92560.92;1754374;81;21116;-71
2021/03/19 04:54:18;;;;;;;16.23;10.43;;;;;;;-3.72;81.71;92568.25;1802570;79;21124;-71
2021/03/19 04:56:46;;;;;;;17.30;12.13;;;;;;;-3.72;81.61;92567.69;1763233;80;22243;-71
2021/03/19 04:59:14;;;;;;;19.47;12.53;;;;;;;-3.75;81.58;92563.02;1807756;79;21084;-71
2021/03/19 05:01:55;;;;;;;18.93;12.20;;;;;;;-3.75;81.71;92564.91;1780160;80;21501;-71
2021/03/19 05:04:24;;;;;;;17.10;11.27;;;;;;;-3.78;81.62;92557.03;1798846;79;21499;-72
2021/03/19 05:06:56;;;;;;;17.33;11.63;;;;;;;-3.78;81.91;92568.21;1759253;80;21645;-73
2021/03/19 05:09:25;;;;;;;16.37;11.37;;;;;;;-3.75;81.93;92564.91;1789122;79;21257;-72
2021/03/19 05:11:53;;;;;;;16.43;11.67;;;;;;;-3.72;81.88;92571.67;1775527;80;21124;-73
2021/03/19 05:14:21;;;;;;;20.13;13.73;;;;;;;-3.69;81.82;92567.02;1782268;80;21168;-72
2021/03/19 05:16:49;;;;;;;61.60;36.63;;;;;;;-3.69;81.84;92568.90;1785932;79;21506;-72
2021/03/19 05:19:19;;;;;;;21.63;13.30;;;;;;;-3.72;81.63;92565.59;1790269;80;21158;-72
2021/03/19 05:21:47;;;;;;;15.90;11.53;;;;;;;-3.74;81.58;92564.57;1790244;80;22329;-73
2021/03/19 05:24:15;;;;;;;16.30;11.57;;;;;;;-3.75;81.66;92565.68;1790234;80;21089;-73
2021/03/19 05:26:43;;;;;;;13.87;9.53;;;;;;;-3.76;81.55;92569.98;1790268;80;21067;-72
2021/03/19 05:29:11;;;;;;;18.07;11.27;;;;;;;-3.81;81.08;92574.17;1790259;80;21124;-72
2021/03/19 05:31:40;;;;;;;18.43;11.20;;;;;;;-3.97;80.75;92572.67;1790177;80;21120;-72
2021/03/19 05:34:09;;;;;;;18.63;12.20;;;;;;;-4.11;81.32;92578.23;1790295;80;22089;-72
2021/03/19 05:36:37;;;;;;;17.50;10.63;;;;;;;-4.17;81.75;92580.31;1790156;80;21081;-73
2021/03/19 05:39:06;;;;;;;14.77;10.40;;;;;;;-4.16;82.21;92588.50;1790310;80;21562;-72
2021/03/19 05:41:35;;;;;;;19.87;11.77;;;;;;;-4.19;82.06;92583.83;1790214;80;21049;-72
2021/03/19 05:44:16;;;;;;;19.00;12.40;;;;;;;-4.20;82.01;92588.15;1790177;80;21045;-73
2021/03/19 05:46:52;;;;;;;22.23;12.50;;;;;;;-4.19;82.29;92591.80;1790121;79;21131;-74
2021/03/19 05:49:30;;;;;;;11.95;9.20;;;;;;;-4.15;82.41;92595.91;1790226;80;21164;-72
2021/03/19 05:52:11;;;;;;;15.90;10.70;;;;;;;-4.12;82.20;92597.16;1790218;80;21687;-73
2021/03/19 05:54:41;;;;;;;16.17;9.90;;;;;;;-4.16;81.92;92593.81;1790151;80;21124;-72
2021/03/19 05:57:30;;;;;;;16.43;11.40;;;;;;;-4.19;81.92;92597.66;1790303;80;21064;-73
2021/03/19 06:00:00;;;;;;;13.80;9.87;;;;;;;-4.19;82.12;92597.66;1790205;80;21362;-73
2021/03/19 06:02:34;;;;;;;16.57;10.80;;;;;;;-4.18;81.68;92603.19;1790123;80;21168;-72
2021/03/19 06:05:26;;;;;;;14.97;10.63;;;;;;;-4.21;81.95;92604.63;1790183;80;21108;-74
2021/03/19 06:08:01;;;;;;;14.07;10.43;;;;;;;-4.19;81.74;92607.72;1790134;80;21093;-74
2021/03/19 06:10:38;;;;;;;17.10;10.33;;;;;;;-4.16;81.91;92600.45;1789650;80;21156;-75
2021/03/19 06:13:17;;;;;;;14.97;9.43;;;;;;;-4.11;81.89;92613.30;1790184;80;21376;-74
2021/03/19 06:15:51;;;;;;;18.80;10.43;;;;;;;-4.09;81.47;92607.91;1790171;79;21092;-75
2021/03/19 06:18:37;;;;;;;13.03;9.30;;;;;;;-4.08;81.51;92612.66;1790403;80;21116;-74
2021/03/19 06:21:08;;;;;;;;;;;;;;;-4.03;81.58;92614.56;1792293;80;21065;-75
2021/03/19 06:23:38;;;;;;;12.53;8.80;;;;;;;-4.01;80.76;92614.26;1801403;79;20476;-74
2021/03/19 06:26:22;;;;;;;10.90;8.30;;;;;;;-4.01;80.73;92617.69;1790215;78;21819;-74
2021/03/19 06:29:08;;;;;;;13.70;8.18;;;;;;;-3.99;80.72;92622.66;1775368;80;27347;-73
2021/03/19 06:31:38;;;;;;;9.28;6.83;;;;;;;-3.97;80.09;92625.23;1769725;81;21073;-73
2021/03/19 06:34:23;;;;;;;10.13;7.67;;;;;;;-3.90;80.46;92623.39;1760812;79;21140;-73
2021/03/19 06:36:52;;;;;;;11.90;7.97;;;;;;;-3.88;80.03;92628.37;1811623;78;21099;-72
2021/03/19 06:39:36;;;;;;;9.90;7.43;;;;;;;-3.82;80.25;92631.84;1796980;79;21519;-72
2021/03/19 06:42:14;;;;;;;11.37;8.83;;;;;;;-3.82;79.81;92626.53;1797031;79;21068;-73
2021/03/19 06:44:41;;;;;;;11.43;7.73;;;;;;;-3.80;79.48;92629.66;1769746;81;21148;-73
2021/03/19 06:47:17;;;;;;;14.03;7.97;;;;;;;-3.79;78.61;92631.20;1771058;81;21116;-73
2021/03/19 06:49:54;;;;;;;11.60;8.60;;;;;;;-3.76;79.06;92635.06;1805400;79;21066;-73
2021/03/19 06:52:26;;;;;;;14.07;8.50;;;;;;;-3.72;78.86;92632.02;1797161;79;21328;-74
2021/03/19 06:55:01;;;;;;;12.87;8.00;;;;;;;-3.70;78.98;92637.20;1789843;80;21067;-72
2021/03/19 06:57:46;;;;;;;16.77;10.03;;;;;;;-3.66;78.74;92627.48;1840066;77;21783;-74
2021/03/19 07:00:18;;;;;;;11.55;9.10;;;;;;;-3.60;78.37;92640.03;1836535;77;21475;-72
2021/03/19 07:03:22;;;;;;;13.37;9.43;;;;;;;-3.59;78.41;92635.50;1775798;79;21029;-72
2021/03/19 07:06:12;;;;;;;13.27;9.17;;;;;;;-3.58;78.64;92634.38;1771313;80;21870;-73
2021/03/19 07:08:46;;;;;;;16.53;8.90;;;;;;;-3.55;78.30;92641.16;1762435;81;21130;-72
2021/03/19 07:11:35;;;;;;;16.03;9.43;;;;;;;-3.55;77.71;92638.50;1786117;79;21155;-72
2021/03/19 07:14:27;;;;;;;11.53;8.80;;;;;;;-3.56;78.18;92646.81;1806795;79;21151;-72
2021/03/19 07:17:34;;;;;;;13.80;8.00;;;;;;;-3.55;78.12;92643.04;1827765;78;21195;-72
2021/03/19 07:20:41;;;;;;;15.17;9.10;;;;;;;-3.53;77.93;92638.96;1803302;79;21407;-74
2021/03/19 07:23:19;;;;;;;13.40;9.03;;;;;;;-3.55;77.71;92645.14;1825049;77;21175;-73
2021/03/19 07:26:02;;;;;;;14.80;8.57;;;;;;;-3.59;77.40;92647.45;1763026;80;21478;-73
2021/03/19 07:28:52;;;;;;;18.43;9.77;;;;;;;-3.67;76.53;92646.42;1754446;80;21833;-73
2021/03/19 07:31:50;;;;;;;12.80;7.90;;;;;;;-3.81;77.59;92653.31;1798921;79;21186;-73
2021/03/19 07:34:35;;;;;;;12.50;8.60;;;;;;;-3.78;78.28;92660.64;1769870;80;21577;-73
2021/03/19 07:37:13;;;;;;;14.00;9.10;;;;;;;-3.75;77.99;92664.54;1768803;81;21488;-73
2021/03/19 07:40:11;;;;;;;12.83;8.00;;;;;;;-3.78;77.81;92659.87;1784897;80;21063;-73
2021/03/19 07:42:56;;;;;;;17.10;8.47;;;;;;;-3.80;78.11;92657.55;1811323;79;21220;-72
2021/03/19 07:46:04;;;;;;;15.37;8.87;;;;;;;-3.90;77.42;92664.56;1837557;77;21049;-72
2021/03/19 07:48:59;;;;;;;12.23;8.27;;;;;;;-3.99;77.83;92673.12;1811847;76;21351;-73
2021/03/19 07:51:47;;;;;;;14.03;9.03;;;;;;;-4.01;77.59;92665.48;1794491;79;21168;-73
2021/03/19 07:54:26;;;;;;;14.43;10.00;;;;;;;-4.04;78.11;92675.42;1770431;80;21078;-72
2021/03/19 07:57:08;;;;;;;12.03;8.40;;;;;;;-4.04;78.53;92664.02;1790307;79;21067;-73
2021/03/19 08:00:09;;;;;;;15.17;9.60;;;;;;;-4.05;78.50;92670.44;1796906;79;21115;-72
2021/03/19 08:02:55;;;;;;;12.57;7.57;;;;;;;-4.00;78.71;92669.69;1836103;78;22231;-73
2021/03/19 08:05:38;;;;;;;11.30;7.43;;;;;;;-3.94;78.37;92667.64;1807944;79;21060;-72
2021/03/19 08:08:33;;;;;;;16.10;8.63;;;;;;;-3.98;77.53;92667.50;1847636;77;21147;-74
2021/03/19 08:11:33;;;;;;;8.80;6.87;;;;;;;-3.97;77.80;92669.05;1869514;76;21139;-74
2021/03/19 08:14:39;;;;;;;14.10;8.97;;;;;;;-3.92;77.61;92671.51;1807758;78;21081;-73
2021/03/19 08:18:02;;;;;;;10.30;7.20;;;;;;;-3.84;77.94;92671.22;1778072;80;21865;-72
2021/03/19 08:20:42;;;;;;;12.17;8.30;;;;;;;-3.70;77.78;92667.77;1676941;81;21255;-73
2021/03/19 08:23:29;;;;;;;14.07;7.80;;;;;;;-3.54;77.03;92661.86;1762495;81;21061;-72
2021/03/19 08:25:56;;;;;;;15.33;8.47;;;;;;;-3.41;76.82;92666.14;1773432;81;21075;-73
2021/03/19 08:28:35;;;;;;;12.43;6.83;;;;;;;-3.22;76.81;92661.67;1808672;79;21048;-74
2021/03/19 08:31:21;;;;;;;14.07;8.40;;;;;;;-3.01;76.89;92658.95;1765386;80;21204;-72
2021/03/19 08:33:57;;;;;;;13.20;8.07;;;;;;;-2.80;76.70;92663.66;1780219;79;21167;-73
2021/03/19 08:36:49;;;;;;;9.60;6.73;;;;;;;-2.58;76.03;92661.16;1754116;80;21175;-73
2021/03/19 08:39:42;;;;;;;12.73;7.90;;;;;;;-2.43;74.85;92665.05;1820364;77;21154;-73
2021/03/19 08:42:30;;;;;;;12.13;7.87;;;;;;;-2.36;73.60;92664.52;1811517;79;21044;-73
2021/03/19 08:45:07;;;;;;;13.87;9.00;;;;;;;-2.31;74.29;92662.95;1850056;77;22421;-73
2021/03/19 08:47:39;;;;;;;12.53;7.57;;;;;;;-2.21;74.51;92665.95;1803654;79;21162;-73
2021/03/19 08:50:35;;;;;;;14.67;7.57;;;;;;;-2.08;73.70;92664.05;1799786;79;21093;-72
2021/03/19 08:53:23;;;;;;;10.68;7.25;;;;;;;-2.05;72.93;92657.28;1735116;80;21148;-72
2021/03/19 08:56:07;;;;;;;12.83;8.07;;;;;;;-2.04;72.17;92664.16;1774831;80;21553;-73
2021/03/19 08:58:47;;;;;;;10.53;7.30;;;;;;;-2.01;72.13;92663.49;1835563;76;21367;-73
2021/03/19 09:01:46;;;;;;;9.77;7.57;;;;;;;-1.99;71.56;92666.61;1820133;78;21164;-73
2021/03/19 09:04:14;;;;;;;10.43;6.60;;;;;;;-1.97;71.46;92659.82;1820184;78;21514;-73
2021/03/19 09:07:04;;;;;;;11.27;6.60;;;;;;;-1.94;71.53;92663.71;1814984;79;21326;-73
2021/03/19 09:09:36;;;;;;;11.17;7.57;;;;;;;-1.92;71.68;92660.14;1804362;79;21048;-73
2021/03/19 09:12:07;;;;;;;9.03;6.70;;;;;;;-1.83;71.96;92659.48;1845143;77;22299;-73
2021/03/19 09:14:42;;;;;;;12.50;8.30;;;;;;;-1.72;71.82;92656.57;1874999;76;21563;-73
2021/03/19 09:17:13;;;;;;;13.10;7.97;;;;;;;-1.58;71.94;92664.22;1825882;76;21194;-73
2021/03/19 09:19:46;;;;;;;13.73;8.30;;;;;;;-1.47;71.25;92666.63;1800948;78;21132;-74
2021/03/19 09:22:24;;;;;;;16.50;11.00;;;;;;;-1.37;71.32;92665.92;1766319;80;21079;-73
2021/03/19 09:25:15;;;;;;;12.70;7.80;;;;;;;-1.26;71.00;92665.66;1773864;79;21143;-73
2021/03/19 09:28:01;;;;;;;12.13;7.33;;;;;;;-1.23;69.04;92669.77;1788231;79;21096;-72
2021/03/19 09:31:02;;;;;;;11.07;7.10;;;;;;;-1.28;68.99;92668.68;1803110;79;21079;-73
2021/03/19 09:33:50;;;;;;;8.57;6.13;;;;;;;-1.29;68.83;92661.00;1746310;80;21061;-71
2021/03/19 09:37:00;;;;;;;8.03;6.37;;;;;;;-1.32;68.80;92663.00;1802491;79;21249;-72
2021/03/19 09:39:56;;;;;;;10.25;5.78;;;;;;;-1.20;69.45;92663.52;1763484;79;21360;-72
2021/03/19 09:42:30;;;;;;;14.03;7.40;;;;;;;-1.04;69.39;92661.13;1780658;80;21184;-72
2021/03/19 09:45:04;;;;;;;8.68;6.37;;;;;;;-0.84;68.88;92654.58;1799173;79;21124;-72
2021/03/19 09:47:45;;;;;;;9.93;6.53;;;;;;;-0.75;68.54;92658.66;1767523;81;21080;-72
2021/03/19 09:50:28;;;;;;;8.18;5.45;;;;;;;-0.67;68.25;92655.60;1771201;81;21068;-72
2021/03/19 09:53:18;;;;;;;9.80;6.15;;;;;;;-0.64;67.64;92657.59;1770633;81;21550;-74
2021/03/19 09:55:51;;;;;;;9.88;6.60;;;;;;;-0.63;67.96;92658.36;1798872;79;21211;-72
2021/03/19 09:58:43;;;;;;;9.13;6.92;;;;;;;-0.67;67.10;92658.84;1798635;79;21113;-73
2021/03/19 10:01:33;;;;;;;12.75;6.87;;;;;;;-0.61;67.27;92654.22;1799045;79;21065;-73
2021/03/19 10:04:05;;;;;;;9.25;6.17;;;;;;;-0.59;65.65;92661.90;1798792;79;21078;-72
2021/03/19 10:06:46;;;;;;;7.27;5.37;;;;;;;-0.62;66.12;92654.00;1798100;79;21368;-72
2021/03/19 10:09:38;;;;;;;7.78;5.65;;;;;;;-0.65;65.97;92649.34;1799099;79;21492;-72
2021/03/19 10:12:06;;;;;;;9.88;6.20;;;;;;;-0.66;66.92;92655.05;1798783;79;21160;-71
2021/03/19 10:14:38;;;;;;;12.15;8.20;;;;;;;-0.65;66.91;92656.02;1802060;79;21045;-72
2021/03/19 10:17:14;;;;;;;10.40;7.92;;;;;;;-0.60;67.13;92659.79;1770413;80;21106;-72
2021/03/19 10:19:45;;;;;;;12.68;6.72;;;;;;;-0.55;66.79;92653.41;1774554;80;21570;-72
2021/03/19 10:22:39;;;;;;;9.10;6.42;;;;;;;-0.47;66.85;92655.70;1775718;80;21108;-72
2021/03/19 10:25:29;;;;;;;7.42;6.08;;;;;;;-0.41;66.09;92658.34;1733364;80;21116;-72
2021/03/19 10:28:19;;;;;;;10.90;6.50;;;;;;;-0.43;66.06;92657.33;1691489;82;21160;-73
2021/03/19 10:31:03;;;;;;;13.70;7.72;;;;;;;-0.41;65.59;92659.68;1756999;80;21701;-73
2021/03/19 10:34:03;;;;;;;11.38;6.67;;;;;;;-0.38;65.41;92659.73;1768355;81;21341;-73
2021/03/19 10:36:46;;;;;;;11.80;6.20;;;;;;;-0.33;65.12;92654.16;1726410;80;21502;-72
2021/03/19 10:39:15;;;;;;;14.58;7.35;;;;;;;-0.34;64.58;92657.16;1797520;79;21060;-72
2021/03/19 10:41:50;;;;;;;17.37;7.47;;;;;;;-0.43;64.28;92658.67;1746003;81;21060;-72
2021/03/19 10:44:22;;;;;;;15.95;7.78;;;;;;;-0.50;63.61;92657.92;1742103;81;21574;-72
2021/03/19 10:47:12;;;;;;;14.73;5.80;;;;;;;-0.53;64.70;92659.97;1779824;79;21199;-72
2021/03/19 10:49:48;;;;;;;16.55;6.67;;;;;;;-0.60;63.72;92658.45;1809851;79;21076;-72
2021/03/19 10:52:38;;;;;;;13.13;6.45;;;;;;;-0.76;63.76;92661.09;1758614;80;21172;-73
2021/03/19 10:55:13;;;;;;;10.05;6.60;;;;;;;-0.84;64.40;92654.02;1777396;80;21140;-72
2021/03/19 10:57:41;;;;;;;9.60;6.30;;;;;;;-0.87;65.18;92652.02;1801900;79;21056;-73
2021/03/19 11:00:23;;;;;;;16.97;8.25;;;;;;;-0.89;65.19;92648.16;1780497;79;21775;-73
2021/03/19 11:02:56;;;;;;;14.10;8.63;;;;;;;-0.92;65.41;92652.28;1817612;78;21076;-73
2021/03/19 11:05:25;;;;;;;13.55;7.70;;;;;;;-0.92;65.06;92641.61;1839378;78;21175;-73
2021/03/19 11:07:53;;;;;;;13.73;8.30;;;;;;;-0.92;65.90;92644.27;1806129;79;21064;-73
2021/03/19 11:10:27;;;;;;;12.93;8.15;;;;;;;-0.89;66.40;92646.83;1810957;77;21554;-73
2021/03/19 11:13:11;;;;;;;11.10;7.30;;;;;;;-0.87;66.41;92641.91;1802466;79;40006;-73
2021/03/19 11:15:43;;;;;;;14.33;8.28;;;;;;;-0.84;66.71;92643.34;1837894;78;21072;-73
2021/03/19 11:18:34;;;;;;;13.03;6.75;;;;;;;-0.83;66.75;92642.77;1806151;79;21132;-73
2021/03/19 11:21:10;;;;;;;12.93;7.28;;;;;;;-0.82;66.52;92639.78;1795445;79;21076;-73
2021/03/19 11:23:45;;;;;;;14.93;8.23;;;;;;;-0.86;66.70;92646.92;1810127;79;21139;-72
2021/03/19 11:26:30;;;;;;;14.30;7.45;;;;;;;-0.86;66.96;92642.15;1751778;80;21380;-73
2021/03/19 11:29:17;;;;;;;;;;;;;;;-0.82;66.87;92645.68;1750735;80;21122;-72
2021/03/19 11:32:10;;;;;;;15.23;7.97;;;;;;;-0.80;67.47;92641.53;1786226;79;20216;-72
2021/03/19 11:34:45;;;;;;;18.73;8.45;;;;;;;-0.78;67.35;92641.98;1784916;79;21116;-74
2021/03/19 11:37:24;;;;;;;15.90;9.63;;;;;;;-0.76;67.39;92638.95;1779535;79;21479;-73
2021/03/19 11:40:22;;;;;;;15.97;8.80;;;;;;;-0.72;67.67;92643.05;1809121;78;21365;-74
2021/03/19 11:42:53;;;;;;;14.38;9.23;;;;;;;-0.74;67.50;92644.17;1805969;79;21084;-73
2021/03/19 11:45:29;;;;;;;13.38;8.43;;;;;;;-0.75;67.86;92639.19;1881280;75;21052;-72
2021/03/19 11:48:04;;;;;;;12.88;8.00;;;;;;;-0.76;67.79;92639.73;1820510;76;21130;-73
2021/03/19 11:50:38;;;;;;;11.12;7.22;;;;;;;-0.79;67.33;92649.78;1809758;78;21072;-73
2021/03/19 11:53:10;;;;;;;11.28;7.25;;;;;;;-0.80;67.77;92645.53;1773389;80;22068;-73
2021/03/19 11:55:42;;;;;;;9.83;7.40;;;;;;;-0.80;67.79;92647.44;1802791;79;21546;-73
2021/03/19 11:58:11;;;;;;;13.75;7.90;;;;;;;-0.78;68.03;92643.31;1808924;78;21045;-73
2021/03/19 12:00:39;;;;;;;12.03;7.15;;;;;;;-0.72;67.72;92645.72;1835739;78;21139;-73
2021/03/19 12:03:13;;;;;;;11.48;7.58;;;;;;;-0.67;67.74;92640.15;1786759;78;21151;-73
2021/03/19 12:05:41;;;;;;;17.10;7.90;;;;;;;-0.67;67.21;92644.16;1792076;77;21701;-73
2021/03/19 12:08:09;;;;;;;17.00;9.63;;;;;;;-0.69;67.47;92649.05;1777865;79;21085;-73
2021/03/19 12:10:37;;;;;;;11.55;8.55;;;;;;;-0.72;67.66;92653.73;1777824;79;21129;-73
2021/03/19 12:13:12;;;;;;;15.40;8.53;;;;;;;-0.74;68.14;92654.09;1777785;79;21592;-73